Augsburg Airport EDMA

Flugplatz Daten

Name: Augsburg Airport

Ident: EDMA

Lat: 48,42527771

Long: 10,93166733

Platzhöhe: 1516 ft

IataCode: AGB

City: Augsburg

Metar

2021/10/20 13:50
EDMA 201350Z 22013KT CAVOK 18/10 Q1014

Taf

Gewünschte Webcam nicht vorhanden? Dann fügen Sie eine hinzu. Sie wird dann so schnell wie möglich freigeschaltet
Url: Title: